Time;durP1;ratioP1;P1;durP2;ratioP2;P2;SDS_P1;SDS_P2;PMS_P1;PMS_P2;Temp;Humidity;BMP_temperature;BMP_pressure;BME280_temperature;BME280_humidity;BME280_pressure;Samples;Min_cycle;Max_cycle;Signal;HPM_P1;HPM_P2
2023/12/03 00:01:04;;;;;;;31.43;14.20;;;-1.00;99.90;;;;;;5251260;28;20279;-49
2023/12/03 00:03:35;;;;;;;32.90;15.83;;;-1.00;99.90;;;;;;5229709;28;20198;-48
2023/12/03 00:06:05;;;;;;;32.73;16.17;;;-1.10;99.90;;;;;;5254540;28;20267;-48
2023/12/03 00:08:36;;;;;;;29.40;14.87;;;-1.10;99.90;;;;;;5250898;28;20254;-50
2023/12/03 00:11:07;;;;;;;29.00;15.30;;;-1.20;99.90;;;;;;5247474;28;20198;-51
2023/12/03 00:13:38;;;;;;;34.03;15.43;;;-1.20;99.90;;;;;;5236706;28;20193;-48
2023/12/03 00:16:09;;;;;;;36.53;16.27;;;-1.20;99.90;;;;;;5228187;28;20210;-49
2023/12/03 00:18:39;;;;;;;24.17;13.67;;;-1.20;99.90;;;;;;5250580;28;20186;-49
2023/12/03 00:21:10;;;;;;;34.07;13.97;;;-1.30;99.90;;;;;;5244672;28;20457;-50
2023/12/03 00:23:41;;;;;;;24.93;13.73;;;-1.30;99.90;;;;;;5231403;28;20214;-48
2023/12/03 00:26:11;;;;;;;31.30;14.33;;;-1.30;99.90;;;;;;5233753;28;20348;-52
2023/12/03 00:28:42;;;;;;;29.70;14.27;;;-1.40;99.90;;;;;;5246931;28;20224;-50
2023/12/03 00:31:13;;;;;;;28.97;14.20;;;-1.30;99.90;;;;;;5243825;28;20216;-49
2023/12/03 00:33:44;;;;;;;30.83;14.87;;;-1.30;99.90;;;;;;5244441;28;20236;-49
2023/12/03 00:36:14;;;;;;;25.40;13.60;;;-1.40;99.90;;;;;;5254913;28;20445;-49
2023/12/03 00:38:45;;;;;;;31.90;15.20;;;-1.50;99.90;;;;;;5246975;28;20229;-49
2023/12/03 00:41:16;;;;;;;32.67;13.40;;;-1.50;99.90;;;;;;5255822;28;20517;-49
2023/12/03 00:43:46;;;;;;;25.60;13.77;;;-1.50;99.90;;;;;;5230638;28;20190;-50
2023/12/03 00:46:18;;;;;;;31.50;14.83;;;-1.40;99.90;;;;;;5227108;28;20240;-50
2023/12/03 00:48:49;;;;;;;23.43;13.83;;;-1.40;99.90;;;;;;5246424;28;20262;-49
2023/12/03 00:51:20;;;;;;;26.80;14.27;;;-1.40;99.90;;;;;;5248567;28;20488;-49
2023/12/03 00:53:51;;;;;;;29.43;13.00;;;-1.40;99.90;;;;;;5252598;28;20240;-49
2023/12/03 00:56:21;;;;;;;26.20;13.03;;;-1.40;99.90;;;;;;5257886;28;20416;-50
2023/12/03 00:58:52;;;;;;;28.37;13.17;;;-1.50;99.90;;;;;;5231475;28;20189;-49
2023/12/03 01:01:22;;;;;;;30.90;13.93;;;-1.50;99.90;;;;;;5248860;28;20190;-50
2023/12/03 01:03:54;;;;;;;24.53;12.90;;;-1.50;99.90;;;;;;5251499;28;20181;-47
2023/12/03 01:06:24;;;;;;;23.83;11.77;;;-1.60;99.90;;;;;;5232642;28;20208;-50
2023/12/03 01:08:55;;;;;;;20.03;11.30;;;-1.70;99.90;;;;;;5240666;28;20437;-49
2023/12/03 01:11:25;;;;;;;31.90;12.57;;;-1.70;99.90;;;;;;5245738;28;20206;-49
2023/12/03 01:13:56;;;;;;;21.83;10.93;;;-1.70;99.90;;;;;;5245956;28;20664;-50
2023/12/03 01:16:26;;;;;;;25.43;11.60;;;-1.60;99.90;;;;;;5230757;28;20192;-49
2023/12/03 01:18:58;;;;;;;20.40;9.80;;;-1.60;99.90;;;;;;5228990;28;20244;-49
2023/12/03 01:21:28;;;;;;;18.00;10.43;;;-1.60;99.90;;;;;;5229828;28;20645;-50
2023/12/03 01:23:59;;;;;;;20.97;9.93;;;-1.70;99.90;;;;;;5231480;28;20475;-51
2023/12/03 01:26:29;;;;;;;16.83;9.50;;;-1.80;99.90;;;;;;5235064;28;20213;-51
2023/12/03 01:29:00;;;;;;;17.57;8.87;;;-1.90;99.90;;;;;;5233759;28;20182;-51
2023/12/03 01:31:30;;;;;;;20.37;10.80;;;-2.00;99.90;;;;;;5246961;28;20265;-50
2023/12/03 01:34:02;;;;;;;19.40;10.70;;;-2.10;99.90;;;;;;5252362;28;20182;-51
2023/12/03 01:36:33;;;;;;;17.17;8.50;;;-2.20;99.90;;;;;;5236247;28;20689;-51
2023/12/03 01:39:05;;;;;;;15.90;8.67;;;-2.30;99.90;;;;;;5250854;28;20439;-51
2023/12/03 01:41:35;;;;;;;18.50;10.00;;;-2.40;99.90;;;;;;5228926;28;20190;-51
2023/12/03 01:44:06;;;;;;;16.27;8.83;;;-2.40;99.90;;;;;;5248831;28;20463;-50
2023/12/03 01:46:37;;;;;;;19.93;10.03;;;-2.40;99.90;;;;;;5231456;28;20210;-50
2023/12/03 01:49:07;;;;;;;18.47;9.53;;;-2.50;99.90;;;;;;5250703;28;20202;-52
2023/12/03 01:51:38;;;;;;;16.33;9.20;;;-2.50;99.90;;;;;;5249554;28;20202;-50
2023/12/03 01:54:09;;;;;;;16.67;8.87;;;-2.50;99.90;;;;;;5234366;28;20268;-50
2023/12/03 01:56:40;;;;;;;17.97;8.30;;;-2.60;99.90;;;;;;5250463;28;20790;-50
2023/12/03 01:59:11;;;;;;;14.70;7.90;;;-2.60;99.90;;;;;;5236448;28;20498;-52
2023/12/03 02:01:42;;;;;;;18.97;9.60;;;-2.60;99.90;;;;;;5229261;28;20212;-52
2023/12/03 02:04:12;;;;;;;14.40;8.97;;;-2.50;99.90;;;;;;5234010;28;20441;-50
2023/12/03 02:06:43;;;;;;;16.93;7.60;;;-2.50;99.90;;;;;;5249892;28;20210;-49
2023/12/03 02:09:16;;;;;;;25.33;10.10;;;-2.40;99.90;;;;;;5248326;28;20663;-50
2023/12/03 02:11:47;;;;;;;20.87;9.17;;;-2.40;99.90;;;;;;5232818;28;20190;-50
2023/12/03 02:14:17;;;;;;;15.67;9.30;;;-2.30;99.90;;;;;;5229388;28;21946;-52
2023/12/03 02:16:48;;;;;;;22.83;7.93;;;-2.20;99.90;;;;;;5249677;28;20277;-50
2023/12/03 02:19:19;;;;;;;18.70;8.63;;;-2.20;99.90;;;;;;5250866;28;20205;-50
2023/12/03 02:21:49;;;;;;;14.13;9.27;;;-2.10;99.90;;;;;;5234861;28;20194;-50
2023/12/03 02:24:20;;;;;;;13.30;8.57;;;-2.20;99.90;;;;;;5229222;28;20894;-51
2023/12/03 02:26:50;;;;;;;14.20;8.10;;;-2.20;99.90;;;;;;5244863;28;20237;-51
2023/12/03 02:29:21;;;;;;;14.43;7.87;;;-2.20;99.90;;;;;;5227929;28;20231;-50
2023/12/03 02:31:52;;;;;;;16.10;8.90;;;-2.20;99.90;;;;;;5233600;28;20185;-50
2023/12/03 02:34:22;;;;;;;15.63;9.07;;;-2.10;99.90;;;;;;5247092;28;20179;-51
2023/12/03 02:36:53;;;;;;;15.87;9.10;;;-2.10;99.90;;;;;;5248668;28;20270;-50
2023/12/03 02:39:24;;;;;;;14.97;8.30;;;-2.00;99.90;;;;;;5245644;28;20225;-51
2023/12/03 02:41:54;;;;;;;15.67;9.17;;;-2.00;99.90;;;;;;5247858;28;20178;-51
2023/12/03 02:44:25;;;;;;;16.03;8.43;;;-1.90;99.90;;;;;;5232543;28;20281;-50
2023/12/03 02:46:55;;;;;;;13.60;8.23;;;-1.90;99.90;;;;;;5229638;28;20678;-50
2023/12/03 02:49:26;;;;;;;14.07;8.50;;;-1.90;99.90;;;;;;5230938;28;20284;-50
2023/12/03 02:51:56;;;;;;;10.20;6.60;;;-1.80;99.90;;;;;;5247720;28;20595;-49
2023/12/03 02:54:27;;;;;;;15.47;8.10;;;-1.80;99.90;;;;;;5247787;28;20182;-50
2023/12/03 02:56:58;;;;;;;15.87;7.50;;;-1.80;99.90;;;;;;5248605;28;20666;-49
2023/12/03 02:59:28;;;;;;;13.80;7.30;;;-1.70;99.90;;;;;;5241741;22;21531;-53
2023/12/03 03:01:59;;;;;;;13.37;7.33;;;-1.70;99.90;;;;;;5227049;28;20197;-52
2023/12/03 03:04:30;;;;;;;17.40;9.30;;;-1.70;99.90;;;;;;5229740;28;20520;-52
2023/12/03 03:07:01;;;;;;;12.97;7.80;;;-1.70;99.90;;;;;;5230294;28;20680;-53
2023/12/03 03:09:31;;;;;;;11.53;6.67;;;-1.70;99.90;;;;;;5235256;28;20205;-51
2023/12/03 03:12:02;;;;;;;13.50;7.83;;;-1.70;99.90;;;;;;5249692;28;20181;-52
2023/12/03 03:14:33;;;;;;;13.10;7.60;;;-1.60;99.90;;;;;;5230024;28;20528;-53
2023/12/03 03:17:04;;;;;;;12.90;8.27;;;-1.60;99.90;;;;;;5239878;28;20432;-51
2023/12/03 03:19:34;;;;;;;12.33;7.53;;;-1.70;99.90;;;;;;5233300;28;20241;-52
2023/12/03 03:22:05;;;;;;;16.10;8.20;;;-1.60;99.90;;;;;;5249070;28;20186;-52
2023/12/03 03:24:35;;;;;;;11.00;7.77;;;-1.60;99.90;;;;;;5212619;28;20187;-53
2023/12/03 03:27:06;;;;;;;16.33;8.10;;;-1.50;99.90;;;;;;5228887;28;20210;-52
2023/12/03 03:29:37;;;;;;;16.57;9.27;;;-1.50;99.90;;;;;;5230952;28;20256;-52
2023/12/03 03:32:08;;;;;;;10.93;8.00;;;-1.50;99.90;;;;;;5243116;28;20171;-51
2023/12/03 03:34:39;;;;;;;14.53;9.03;;;-1.40;99.90;;;;;;5235148;28;20792;-50
2023/12/03 03:37:09;;;;;;;13.90;8.90;;;-1.40;99.90;;;;;;5249244;28;20183;-53
2023/12/03 03:39:40;;;;;;;16.83;8.73;;;-1.40;99.90;;;;;;5230791;28;20206;-49
2023/12/03 03:42:11;;;;;;;16.30;9.93;;;-1.40;99.90;;;;;;5231173;28;20587;-51
2023/12/03 03:44:41;;;;;;;15.10;9.33;;;-1.40;99.90;;;;;;5236715;28;20220;-52
2023/12/03 03:47:13;;;;;;;16.03;8.87;;;-1.40;99.90;;;;;;5238302;28;20222;-51
2023/12/03 03:49:44;;;;;;;20.03;9.47;;;-1.40;99.90;;;;;;5227654;28;20206;-51
2023/12/03 03:52:14;;;;;;;16.87;9.00;;;-1.40;99.90;;;;;;5229148;28;20428;-51
2023/12/03 03:54:45;;;;;;;16.17;9.57;;;-1.40;99.90;;;;;;5245220;28;20258;-50
2023/12/03 03:57:16;;;;;;;20.87;8.80;;;-1.40;99.90;;;;;;5220682;28;20277;-51
2023/12/03 03:59:46;;;;;;;13.73;9.33;;;-1.30;99.90;;;;;;5249138;28;20692;-51
2023/12/03 04:02:17;;;;;;;17.63;9.47;;;-1.20;99.90;;;;;;5229305;28;20186;-51
2023/12/03 04:04:48;;;;;;;16.53;9.83;;;-1.20;99.90;;;;;;5230094;28;20229;-50
2023/12/03 04:07:19;;;;;;;16.33;10.03;;;-1.30;99.90;;;;;;5227630;28;20206;-50
2023/12/03 04:09:50;;;;;;;12.23;8.90;;;-1.20;99.90;;;;;;5243880;28;20690;-50
2023/12/03 04:12:20;;;;;;;11.73;9.70;;;-1.20;99.90;;;;;;5225131;28;20432;-51
2023/12/03 04:14:51;;;;;;;16.90;9.70;;;-1.20;99.90;;;;;;5247272;28;20179;-50
2023/12/03 04:17:22;;;;;;;12.97;8.90;;;-1.20;99.90;;;;;;5223963;28;20214;-51
2023/12/03 04:19:52;;;;;;;14.07;8.93;;;-1.10;99.90;;;;;;5228380;28;20201;-50
2023/12/03 04:22:23;;;;;;;32.80;9.37;;;-1.10;99.90;;;;;;5225002;28;20178;-55
2023/12/03 04:24:54;;;;;;;15.93;9.60;;;-1.10;99.90;;;;;;5229045;28;20190;-51
2023/12/03 04:27:26;;;;;;;15.37;9.20;;;-1.10;99.90;;;;;;5228533;28;20472;-51
2023/12/03 04:29:56;;;;;;;15.03;8.80;;;-1.00;99.90;;;;;;5249515;28;20322;-55
2023/12/03 04:32:27;;;;;;;18.90;10.30;;;-1.00;99.90;;;;;;5242887;28;20527;-51
2023/12/03 04:34:58;;;;;;;13.83;10.27;;;-1.00;99.90;;;;;;5244615;28;20653;-53
2023/12/03 04:37:28;;;;;;;18.77;10.23;;;-0.90;99.90;;;;;;5247376;28;20196;-53
2023/12/03 04:39:59;;;;;;;18.67;11.90;;;-1.00;99.90;;;;;;5232998;28;20208;-52
2023/12/03 04:42:30;;;;;;;17.13;10.50;;;-1.00;99.90;;;;;;5225977;28;20193;-50
2023/12/03 04:45:01;;;;;;;15.83;11.00;;;-1.00;99.90;;;;;;5225519;28;20185;-51
2023/12/03 04:47:32;;;;;;;19.97;11.13;;;-0.90;99.90;;;;;;5231106;28;20657;-51
2023/12/03 04:50:03;;;;;;;16.80;10.60;;;-0.90;99.90;;;;;;5224850;28;20206;-50
2023/12/03 04:52:33;;;;;;;17.40;10.23;;;-0.90;99.90;;;;;;5226322;28;20437;-51
2023/12/03 04:55:05;;;;;;;15.07;10.57;;;-0.90;99.90;;;;;;5244120;28;20448;-50
2023/12/03 04:57:35;;;;;;;24.67;9.47;;;-0.70;99.90;;;;;;5226194;28;20194;-51
2023/12/03 05:00:07;;;;;;;17.87;11.07;;;-0.80;99.90;;;;;;5227596;28;20457;-51
2023/12/03 05:02:38;;;;;;;21.23;10.63;;;-0.90;99.90;;;;;;5220989;28;20244;-50
2023/12/03 05:05:08;;;;;;;15.97;10.60;;;-0.80;99.90;;;;;;5248127;28;20436;-50
2023/12/03 05:07:39;;;;;;;19.60;11.40;;;-0.80;99.90;;;;;;5243688;28;20186;-50
2023/12/03 05:10:10;;;;;;;16.27;11.73;;;-0.80;99.90;;;;;;5227673;28;20270;-53
2023/12/03 05:12:40;;;;;;;23.03;11.90;;;-0.80;99.90;;;;;;5221408;28;20179;-51
2023/12/03 05:15:11;;;;;;;22.53;13.00;;;-0.80;99.90;;;;;;5227991;28;20228;-51
2023/12/03 05:17:42;;;;;;;21.40;11.83;;;-0.70;99.90;;;;;;5225970;28;20289;-51
2023/12/03 05:20:13;;;;;;;21.77;11.73;;;-0.80;99.90;;;;;;5222834;28;20534;-51
2023/12/03 05:22:44;;;;;;;20.40;12.83;;;-0.80;99.90;;;;;;5241516;28;20264;-52
2023/12/03 05:25:15;;;;;;;23.47;11.90;;;-0.80;99.90;;;;;;5224500;28;20723;-52
2023/12/03 05:27:46;;;;;;;20.07;12.33;;;-0.80;99.90;;;;;;5247564;28;20442;-52
2023/12/03 05:30:18;;;;;;;20.40;12.53;;;-0.90;99.90;;;;;;5229887;28;20608;-51
2023/12/03 05:32:48;;;;;;;19.53;12.53;;;-0.80;99.90;;;;;;5229643;28;20456;-51
2023/12/03 05:35:19;;;;;;;25.73;12.70;;;-0.80;99.90;;;;;;5217980;28;20466;-51
2023/12/03 05:37:50;;;;;;;20.23;11.40;;;-0.80;99.90;;;;;;5246014;28;20181;-50
2023/12/03 05:40:21;;;;;;;23.80;12.93;;;-0.80;99.90;;;;;;5245916;28;20665;-50
2023/12/03 05:42:52;;;;;;;24.50;13.43;;;-0.80;99.90;;;;;;5225214;28;20433;-50
2023/12/03 05:45:22;;;;;;;26.40;14.67;;;-0.80;99.90;;;;;;5239150;28;20182;-51
2023/12/03 05:47:53;;;;;;;23.33;13.97;;;-0.80;99.90;;;;;;5246503;28;20189;-50
2023/12/03 05:50:24;;;;;;;26.87;12.93;;;-0.80;99.90;;;;;;5246216;28;20569;-53
2023/12/03 05:52:55;;;;;;;22.00;13.40;;;-0.80;99.90;;;;;;5245710;28;20190;-52
2023/12/03 05:55:26;;;;;;;19.13;13.03;;;-0.80;99.90;;;;;;5231687;28;20455;-52
2023/12/03 05:57:56;;;;;;;24.20;12.47;;;-0.80;99.90;;;;;;5243784;28;20177;-50
2023/12/03 06:00:27;;;;;;;23.90;13.40;;;-0.80;99.90;;;;;;5248786;28;20269;-51
2023/12/03 06:02:59;;;;;;;22.90;13.80;;;-0.70;99.90;;;;;;5224936;28;20194;-52
2023/12/03 06:05:30;;;;;;;24.53;13.77;;;-0.80;99.90;;;;;;5233592;28;20589;-51
2023/12/03 06:08:01;;;;;;;22.67;13.30;;;-0.70;99.90;;;;;;5234126;28;20194;-50
2023/12/03 06:10:31;;;;;;;21.10;13.20;;;-0.90;99.90;;;;;;5245111;28;20198;-51
2023/12/03 06:13:02;;;;;;;22.53;13.57;;;-0.80;99.90;;;;;;5230204;28;20201;-51
2023/12/03 06:15:33;;;;;;;16.47;11.23;;;-0.90;99.90;;;;;;5246906;28;20236;-52
2023/12/03 06:18:03;;;;;;;20.63;13.87;;;-0.80;99.90;;;;;;5232232;28;20186;-52
2023/12/03 06:20:34;;;;;;;23.07;13.63;;;-0.90;99.90;;;;;;5227427;28;20706;-51
2023/12/03 06:23:05;;;;;;;24.43;13.10;;;-0.90;99.90;;;;;;5229955;28;20542;-51
2023/12/03 06:25:36;;;;;;;20.80;13.17;;;-0.90;99.90;;;;;;5247801;28;20632;-50
2023/12/03 06:28:06;;;;;;;22.50;13.40;;;-0.90;99.90;;;;;;5251367;28;20550;-52
2023/12/03 06:30:37;;;;;;;27.93;13.80;;;-0.90;99.90;;;;;;5228762;28;20456;-50
2023/12/03 06:33:08;;;;;;;19.60;11.90;;;-0.90;99.90;;;;;;5245068;28;20583;-52
2023/12/03 06:35:38;;;;;;;25.33;13.37;;;-1.10;99.90;;;;;;5226357;28;20221;-51
2023/12/03 06:38:09;;;;;;;22.63;14.23;;;-1.10;99.90;;;;;;5244047;28;20240;-52
2023/12/03 06:40:40;;;;;;;20.50;12.67;;;-1.00;99.90;;;;;;5229749;28;20572;-51
2023/12/03 06:43:11;;;;;;;24.83;14.53;;;-1.00;99.90;;;;;;5248319;28;20205;-52
2023/12/03 06:45:41;;;;;;;22.03;11.90;;;-1.10;99.90;;;;;;5246264;28;20683;-51
2023/12/03 06:48:12;;;;;;;23.70;13.57;;;-1.10;99.90;;;;;;5248621;28;20417;-50
2023/12/03 06:50:43;;;;;;;20.07;13.37;;;-1.10;99.90;;;;;;5225192;28;20193;-50
2023/12/03 06:53:13;;;;;;;23.77;14.27;;;-1.10;99.90;;;;;;5227079;28;20181;-51
2023/12/03 06:55:44;;;;;;;27.17;13.47;;;-1.10;99.90;;;;;;5244667;28;20322;-49
2023/12/03 06:58:15;;;;;;;28.80;14.87;;;-1.10;99.90;;;;;;5229754;28;20190;-54
2023/12/03 07:00:46;;;;;;;20.77;12.47;;;-1.10;99.90;;;;;;5246502;28;20231;-51
2023/12/03 07:03:17;;;;;;;22.50;13.60;;;-1.00;99.90;;;;;;5237496;28;20189;-50
2023/12/03 07:05:48;;;;;;;26.07;14.40;;;-0.90;99.90;;;;;;5250954;28;20484;-51
2023/12/03 07:08:18;;;;;;;24.97;14.20;;;-1.00;99.90;;;;;;5230694;28;20980;-52
2023/12/03 07:10:49;;;;;;;32.83;15.07;;;-1.00;99.90;;;;;;5228161;28;20206;-52
2023/12/03 07:13:20;;;;;;;23.10;12.87;;;-1.10;99.90;;;;;;5233910;28;20260;-51
2023/12/03 07:15:50;;;;;;;25.77;13.47;;;-1.10;99.90;;;;;;5251014;28;20634;-52
2023/12/03 07:18:21;;;;;;;25.30;14.63;;;-1.10;99.90;;;;;;5252390;28;20190;-52
2023/12/03 07:20:52;;;;;;;25.00;13.93;;;-1.00;99.90;;;;;;5235127;28;20661;-51
2023/12/03 07:23:23;;;;;;;25.50;14.20;;;-1.00;99.90;;;;;;5243700;28;20186;-51
2023/12/03 07:25:53;;;;;;;22.53;14.33;;;-1.10;99.90;;;;;;5252067;28;20209;-51
2023/12/03 07:28:24;;;;;;;18.23;13.30;;;-1.10;99.90;;;;;;5236296;28;20175;-53
2023/12/03 07:30:55;;;;;;;27.47;15.27;;;-1.00;99.90;;;;;;5248305;28;20276;-52
2023/12/03 07:33:25;;;;;;;22.50;11.97;;;-1.00;99.90;;;;;;5258888;28;20206;-50
2023/12/03 07:35:56;;;;;;;25.80;13.70;;;-1.10;99.90;;;;;;5245797;28;20269;-50
2023/12/03 07:38:28;;;;;;;25.00;13.83;;;-1.20;99.90;;;;;;5248275;28;20186;-52
2023/12/03 07:40:59;;;;;;;21.50;12.47;;;-1.10;99.90;;;;;;5243425;28;20551;-52
2023/12/03 07:43:30;;;;;;;23.13;12.20;;;-1.00;99.90;;;;;;5230250;28;20518;-52
2023/12/03 07:46:01;;;;;;;20.60;13.37;;;-1.00;99.90;;;;;;5259901;28;20547;-50
2023/12/03 07:48:32;;;;;;;22.33;12.87;;;-1.00;99.90;;;;;;5232408;28;20639;-52
2023/12/03 07:51:09;;;;;;;24.93;13.70;;;-1.00;99.90;;;;;;5231921;28;20204;-51
2023/12/03 07:53:40;;;;;;;18.20;12.67;;;-0.90;99.90;;;;;;5242374;28;20438;-51
2023/12/03 07:56:11;;;;;;;22.97;12.97;;;-0.90;99.90;;;;;;5229313;28;20437;-52
2023/12/03 07:58:41;;;;;;;21.23;12.33;;;-0.90;99.90;;;;;;5233336;28;20441;-52
2023/12/03 08:01:12;;;;;;;23.63;12.67;;;-1.00;99.90;;;;;;5224942;28;20210;-52
2023/12/03 08:03:43;;;;;;;21.10;13.23;;;-1.10;99.90;;;;;;5215221;28;20672;-52
2023/12/03 08:06:14;;;;;;;21.87;12.53;;;-1.00;99.90;;;;;;5231728;28;20448;-52
2023/12/03 08:08:45;;;;;;;20.33;12.57;;;-1.10;99.90;;;;;;5250775;28;20593;-50
2023/12/03 08:11:15;;;;;;;24.23;13.30;;;-1.10;99.90;;;;;;5214424;28;20561;-51
2023/12/03 08:13:47;;;;;;;20.07;12.63;;;-1.10;99.90;;;;;;5247672;28;20474;-51
2023/12/03 08:16:17;;;;;;;26.63;14.33;;;-1.10;99.90;;;;;;5243908;28;21666;-50
2023/12/03 08:18:48;;;;;;;23.70;13.97;;;-1.10;99.90;;;;;;5213009;28;20459;-51
2023/12/03 08:21:19;;;;;;;28.40;14.83;;;-1.00;99.90;;;;;;5247531;28;20293;-51
2023/12/03 08:23:49;;;;;;;24.73;14.30;;;-0.90;99.90;;;;;;5246850;28;20218;-50
2023/12/03 08:26:20;;;;;;;22.70;14.33;;;-0.80;99.90;;;;;;5249792;28;20210;-52
2023/12/03 08:28:51;;;;;;;21.97;13.87;;;-0.70;99.90;;;;;;5243904;28;20210;-52
2023/12/03 08:31:23;;;;;;;24.33;14.97;;;-0.70;99.90;;;;;;5220399;28;20208;-54
2023/12/03 08:33:54;;;;;;;25.07;14.80;;;-0.70;99.90;;;;;;5235380;28;20475;-50
2023/12/03 08:36:30;;;;;;;25.87;14.27;;;-0.50;99.90;;;;;;5254055;28;20440;-50
2023/12/03 08:39:02;;;;;;;19.80;12.57;;;-0.60;99.90;;;;;;5229676;28;20194;-52
2023/12/03 08:41:36;;;;;;;20.37;11.67;;;-0.70;99.90;;;;;;5226380;28;20469;-52
2023/12/03 08:44:07;;;;;;;15.20;10.23;;;-0.70;99.90;;;;;;5230533;28;20436;-51
2023/12/03 08:46:38;;;;;;;19.03;10.43;;;-0.80;99.90;;;;;;5230022;28;20452;-51
2023/12/03 08:49:09;;;;;;;22.13;13.13;;;-0.80;99.90;;;;;;5225104;28;20776;-50
2023/12/03 08:51:40;;;;;;;19.50;11.40;;;-0.80;99.90;;;;;;5223924;28;20521;-53
2023/12/03 08:54:11;;;;;;;22.93;13.67;;;-0.80;99.90;;;;;;5243792;28;20232;-51
2023/12/03 08:56:45;;;;;;;20.37;11.40;;;-0.70;99.90;;;;;;5247410;28;20233;-52
2023/12/03 08:59:15;;;;;;;14.80;10.47;;;-0.60;99.90;;;;;;5232323;28;21864;-51
2023/12/03 09:01:46;;;;;;;18.17;11.10;;;-0.70;99.90;;;;;;5230952;28;20518;-52
2023/12/03 09:04:17;;;;;;;19.83;11.13;;;-0.70;99.90;;;;;;5229596;28;20245;-54
2023/12/03 09:06:48;;;;;;;15.93;10.40;;;-0.90;99.90;;;;;;5232429;28;20260;-53
2023/12/03 09:09:18;;;;;;;15.80;10.37;;;-0.80;99.90;;;;;;5246119;28;20627;-52
2023/12/03 09:11:49;;;;;;;19.53;9.80;;;-1.00;99.90;;;;;;5228579;28;20200;-53
2023/12/03 09:14:20;;;;;;;21.90;12.10;;;-1.00;99.90;;;;;;5234517;28;20181;-54
2023/12/03 09:16:51;;;;;;;17.63;10.83;;;-1.00;99.90;;;;;;5243487;28;20201;-54
2023/12/03 09:19:21;;;;;;;17.90;10.63;;;-0.80;99.90;;;;;;5220451;28;20232;-53
2023/12/03 09:21:52;;;;;;;13.43;9.97;;;-0.80;99.90;;;;;;5233822;28;20676;-53
2023/12/03 09:24:23;;;;;;;19.97;11.00;;;-0.80;99.90;;;;;;5242279;28;20285;-53
2023/12/03 09:26:53;;;;;;;19.97;11.67;;;-0.90;99.90;;;;;;5251443;28;20221;-54
2023/12/03 09:29:24;;;;;;;19.03;11.90;;;-0.80;99.90;;;;;;5230507;28;20192;-54
2023/12/03 09:31:55;;;;;;;12.67;9.00;;;-0.80;99.90;;;;;;5247982;28;20227;-55
2023/12/03 09:34:25;;;;;;;15.70;9.93;;;-0.70;99.90;;;;;;5250830;28;20202;-52
2023/12/03 09:37:01;;;;;;;19.00;11.07;;;-0.70;99.90;;;;;;5237900;28;20228;-51
2023/12/03 09:39:32;;;;;;;18.13;11.53;;;-0.70;99.90;;;;;;5232315;28;20213;-53
2023/12/03 09:42:07;;;;;;;17.50;10.30;;;-0.80;99.90;;;;;;5237247;28;20519;-51
2023/12/03 09:44:46;;;;;;;17.80;10.57;;;-0.70;99.90;;;;;;5232987;28;20193;-53
2023/12/03 09:47:18;;;;;;;16.70;11.27;;;-0.60;99.90;;;;;;5233157;28;20468;-51
2023/12/03 09:49:53;;;;;;;14.40;9.33;;;-0.50;99.90;;;;;;5233071;28;20468;-52
2023/12/03 09:52:27;;;;;;;15.20;10.43;;;-0.40;99.90;;;;;;5249450;28;20434;-53
2023/12/03 09:54:58;;;;;;;19.50;11.27;;;-0.30;99.90;;;;;;5233110;28;20420;-54
2023/12/03 09:57:30;;;;;;;20.60;11.33;;;-0.30;99.90;;;;;;5233590;28;20432;-54
2023/12/03 10:00:06;;;;;;;15.80;10.17;;;-0.20;99.90;;;;;;5227954;28;20484;-53
2023/12/03 10:02:37;;;;;;;20.33;11.40;;;-0.20;99.90;;;;;;5230671;28;20447;-53
2023/12/03 10:05:08;;;;;;;17.77;10.40;;;-0.30;99.90;;;;;;5233642;28;20437;-53
2023/12/03 10:07:39;;;;;;;18.87;10.30;;;-0.40;99.90;;;;;;5252093;28;20466;-52
2023/12/03 10:10:11;;;;;;;18.73;11.77;;;-0.40;99.90;;;;;;5253876;28;20206;-53
2023/12/03 10:12:43;;;;;;;17.17;10.33;;;-0.20;99.90;;;;;;5234836;28;20582;-54
2023/12/03 10:15:14;;;;;;;17.23;10.03;;;-0.40;99.90;;;;;;5233077;28;20485;-52
2023/12/03 10:17:48;;;;;;;14.13;9.30;;;-0.30;99.90;;;;;;5235632;28;20545;-52
2023/12/03 10:20:22;;;;;;;15.37;10.30;;;-0.20;99.90;;;;;;5247449;28;20468;-52
2023/12/03 10:23:00;;;;;;;17.20;10.57;;;-0.20;99.90;;;;;;5256480;28;20442;-52
2023/12/03 10:25:35;;;;;;;16.47;11.10;;;-0.20;99.90;;;;;;5217180;28;20520;-54
2023/12/03 10:28:08;;;;;;;16.63;10.43;;;-0.10;99.90;;;;;;5248966;28;20436;-53
2023/12/03 10:30:39;;;;;;;15.47;10.40;;;0.00;99.90;;;;;;5248211;28;20448;-54
2023/12/03 10:33:11;;;;;;;19.50;10.87;;;0.00;99.90;;;;;;5229626;28;20439;-51
2023/12/03 10:35:42;;;;;;;23.93;12.43;;;0.10;99.90;;;;;;5254563;28;20190;-52
2023/12/03 10:38:17;;;;;;;19.27;10.90;;;0.20;99.90;;;;;;5252595;28;20497;-52
2023/12/03 10:40:48;;;;;;;20.30;10.80;;;0.20;99.90;;;;;;5229771;28;20220;-53
2023/12/03 10:43:22;;;;;;;18.87;11.60;;;0.10;99.90;;;;;;5231852;28;20425;-52
2023/12/03 10:45:53;;;;;;;15.40;10.33;;;0.10;99.90;;;;;;5231587;28;20198;-53
2023/12/03 10:48:27;;;;;;;16.20;10.30;;;0.10;99.90;;;;;;5249712;28;20430;-52
2023/12/03 10:51:04;;;;;;;17.90;11.13;;;0.10;99.90;;;;;;5229688;28;20486;-53
2023/12/03 10:53:36;;;;;;;18.53;12.00;;;0.20;99.90;;;;;;5228732;28;20474;-53
2023/12/03 10:56:08;;;;;;;21.80;11.17;;;0.20;99.90;;;;;;5249019;28;20555;-52
2023/12/03 10:58:41;;;;;;;20.33;10.90;;;0.20;99.90;;;;;;5231670;28;20464;-53
2023/12/03 11:01:27;;;;;;;15.20;10.13;;;0.30;99.90;;;;;;5253165;28;20458;-53
2023/12/03 11:04:06;;;;;;;16.10;9.70;;;0.30;99.90;;;;;;5250235;28;20431;-53
2023/12/03 11:06:40;;;;;;;14.37;9.40;;;0.40;99.90;;;;;;5230315;28;20461;-53
2023/12/03 11:09:12;;;;;;;14.47;9.37;;;0.20;99.90;;;;;;5231381;28;20446;-53
2023/12/03 11:11:43;;;;;;;15.33;9.87;;;0.20;99.90;;;;;;5233964;28;20434;-53
2023/12/03 11:14:15;;;;;;;17.83;8.53;;;0.20;99.90;;;;;;5237949;28;20438;-51
2023/12/03 11:17:11;;;;;;;19.00;10.40;;;0.20;99.90;;;;;;5250330;28;20192;-52
2023/12/03 11:19:44;;;;;;;14.20;8.17;;;0.10;99.90;;;;;;5248547;28;20470;-54
2023/12/03 11:22:34;;;;;;;14.50;9.83;;;0.20;99.90;;;;;;5246981;28;20436;-52
2023/12/03 11:25:12;;;;;;;15.63;9.60;;;0.30;99.90;;;;;;5250927;28;20424;-54
2023/12/03 11:27:45;;;;;;;10.33;8.03;;;0.70;99.90;;;;;;5246825;28;20550;-53
2023/12/03 11:30:36;;;;;;;12.00;8.40;;;0.80;99.90;;;;;;5231578;28;20817;-53
2023/12/03 11:33:14;;;;;;;17.43;9.10;;;0.90;99.90;;;;;;5227522;28;20441;-54
2023/12/03 11:35:46;;;;;;;14.93;8.50;;;1.00;99.90;;;;;;5245007;28;20473;-53
2023/12/03 11:38:20;;;;;;;13.43;9.57;;;1.00;99.90;;;;;;5232021;28;20646;-51
2023/12/03 11:40:51;;;;;;;16.00;9.37;;;1.20;99.90;;;;;;5249328;28;20498;-52
2023/12/03 11:43:26;;;;;;;13.10;9.30;;;1.30;99.90;;;;;;5233481;28;20464;-54
2023/12/03 11:45:57;;;;;;;13.03;9.10;;;1.20;99.90;;;;;;5250941;28;20202;-51
2023/12/03 11:48:29;;;;;;;20.57;10.07;;;1.20;99.90;;;;;;5244909;28;20442;-53
2023/12/03 11:51:02;;;;;;;13.80;9.10;;;0.90;99.90;;;;;;5248667;28;20490;-53
2023/12/03 11:54:02;;;;;;;13.30;9.00;;;0.70;99.90;;;;;;5231822;28;20436;-51
2023/12/03 11:56:35;;;;;;;12.93;8.67;;;0.50;99.90;;;;;;5248634;28;20434;-53
2023/12/03 11:59:05;;;;;;;10.83;8.60;;;0.30;99.90;;;;;;5227891;28;20443;-53
2023/12/03 12:01:39;;;;;;;13.20;8.40;;;0.20;99.90;;;;;;5229941;28;20464;-53
2023/12/03 12:04:22;;;;;;;13.97;8.30;;;0.10;99.90;;;;;;5230620;28;20191;-51
2023/12/03 12:06:53;;;;;;;13.70;8.50;;;0.10;99.90;;;;;;5231128;28;20561;-52
2023/12/03 12:09:24;;;;;;;14.40;9.47;;;0.10;99.90;;;;;;5231676;28;20467;-53
2023/12/03 12:11:55;;;;;;;17.70;9.50;;;0.20;99.90;;;;;;5247602;28;20439;-53
2023/12/03 12:14:26;;;;;;;17.03;9.97;;;0.20;99.90;;;;;;5242542;28;20174;-52
2023/12/03 12:16:57;;;;;;;18.80;10.47;;;0.20;99.90;;;;;;5251759;28;20192;-53
2023/12/03 12:19:28;;;;;;;17.60;9.50;;;0.30;99.90;;;;;;5255852;28;20881;-54
2023/12/03 12:21:58;;;;;;;18.47;11.60;;;0.30;99.90;;;;;;5247544;28;20413;-54
2023/12/03 12:24:29;;;;;;;20.23;11.67;;;0.20;99.90;;;;;;5230010;28;20196;-53
2023/12/03 12:27:00;;;;;;;18.67;10.73;;;0.10;99.90;;;;;;5212811;28;20205;-54
2023/12/03 12:29:30;;;;;;;16.97;10.67;;;0.30;99.90;;;;;;5244976;28;20218;-53
2023/12/03 12:32:02;;;;;;;16.40;10.67;;;0.40;99.90;;;;;;5226102;28;20186;-54
2023/12/03 12:34:33;;;;;;;15.50;9.73;;;0.60;99.90;;;;;;5230396;28;20274;-51
2023/12/03 12:37:05;;;;;;;13.57;8.17;;;0.60;99.90;;;;;;5247880;28;20516;-52
2023/12/03 12:39:36;;;;;;;16.03;10.10;;;0.70;99.90;;;;;;5228567;28;20658;-51
2023/12/03 12:42:24;;;;;;;15.10;9.17;;;0.70;99.90;;;;;;5244426;28;20442;-53
2023/12/03 12:44:56;;;;;;;13.70;8.53;;;0.80;99.90;;;;;;5226862;28;20448;-53
2023/12/03 12:47:36;;;;;;;12.50;8.40;;;0.70;99.90;;;;;;5210319;28;20798;-52
2023/12/03 12:50:07;;;;;;;12.40;8.60;;;0.70;99.90;;;;;;5245105;28;20461;-53
2023/12/03 12:52:38;;;;;;;14.73;10.77;;;0.50;99.90;;;;;;5224032;28;20532;-54
2023/12/03 12:55:11;;;;;;;15.00;9.53;;;0.30;99.90;;;;;;5219502;28;20468;-53